createdAt,value
2022-11-22T00:00:42.828Z,2.40
2022-11-22T00:01:45.342Z,1.50
2022-11-22T00:02:47.200Z,1.50
2022-11-22T00:03:49.025Z,2.67
2022-11-22T00:04:51.040Z,1.00
2022-11-22T00:05:52.715Z,1.00
2022-11-22T00:06:54.947Z,2.11
2022-11-22T00:07:56.872Z,2.80
2022-11-22T00:08:59.670Z,2.00
2022-11-22T00:10:01.749Z,3.36
2022-11-22T00:11:03.399Z,2.67
2022-11-22T00:12:05.442Z,2.22
2022-11-22T00:13:07.272Z,1.70
2022-11-22T00:14:09.150Z,2.10
2022-11-22T00:15:11.862Z,3.22
2022-11-22T00:16:14.628Z,4.40
2022-11-22T00:17:16.730Z,3.40
2022-11-22T00:18:18.466Z,4.30
2022-11-22T00:19:20.841Z,3.22
2022-11-22T00:20:22.783Z,2.10
2022-11-22T00:21:24.628Z,3.44
2022-11-22T00:22:26.781Z,5.11
2022-11-22T00:23:28.670Z,3.30
2022-11-22T00:24:30.443Z,2.67
2022-11-22T00:25:32.253Z,2.00
2022-11-22T00:26:34.531Z,3.11
2022-11-22T00:27:36.420Z,2.30
2022-11-22T00:28:38.626Z,3.56
2022-11-22T00:29:40.487Z,2.20
2022-11-22T00:30:42.753Z,2.22
2022-11-22T00:31:44.664Z,2.00
2022-11-22T00:32:47.271Z,2.00
2022-11-22T00:33:50.212Z,1.90
2022-11-22T00:34:52.044Z,1.18
2022-11-22T00:35:53.975Z,1.00
2022-11-22T00:36:56.287Z,0.89
2022-11-22T00:37:59.215Z,1.00
2022-11-22T00:39:01.322Z,1.91
2022-11-22T00:40:04.651Z,3.00
2022-11-22T00:41:06.479Z,2.00
2022-11-22T00:42:08.465Z,4.56
2022-11-22T00:43:10.602Z,5.50
2022-11-22T00:44:12.256Z,4.44
2022-11-22T00:45:14.072Z,3.00
2022-11-22T00:46:16.052Z,1.67
2022-11-22T00:47:17.808Z,2.89
2022-11-22T00:48:19.760Z,4.11
2022-11-22T00:49:21.952Z,1.10
2022-11-22T00:50:24.078Z,2.30
2022-11-22T00:51:25.881Z,0.00
2022-11-22T00:52:27.607Z,2.00
2022-11-22T00:53:29.971Z,3.56
2022-11-22T00:54:31.882Z,5.20
2022-11-22T00:55:34.315Z,3.11
2022-11-22T00:56:36.237Z,3.40
2022-11-22T00:57:37.969Z,3.22
2022-11-22T00:58:39.796Z,3.89
2022-11-22T00:59:42.168Z,1.11
2022-11-22T01:00:44.858Z,5.60
2022-11-22T01:01:50.144Z,4.30
2022-11-22T01:02:52.601Z,2.50
2022-11-22T01:03:54.715Z,5.70
2022-11-22T01:04:56.654Z,6.44
2022-11-22T01:05:58.374Z,3.89
2022-11-22T01:07:00.308Z,5.67
2022-11-22T01:08:02.677Z,7.67
2022-11-22T01:09:04.646Z,6.00
2022-11-22T01:10:08.253Z,11.00
2022-11-22T01:11:10.938Z,17.70
2022-11-22T01:12:12.618Z,5.60
2022-11-22T01:13:15.550Z,5.33
2022-11-22T01:14:19.192Z,5.09
2022-11-22T01:15:21.192Z,4.60
2022-11-22T01:16:23.578Z,1.40
2022-11-22T01:17:26.179Z,4.70
2022-11-22T01:18:28.477Z,3.10
2022-11-22T01:19:30.910Z,3.00
2022-11-22T01:20:33.047Z,3.40
2022-11-22T01:21:34.719Z,2.00
2022-11-22T01:22:36.648Z,2.11
2022-11-22T01:23:38.579Z,1.56
2022-11-22T01:24:40.310Z,1.22
2022-11-22T01:25:44.415Z,1.89
2022-11-22T01:26:46.630Z,2.00
2022-11-22T01:27:49.183Z,2.00
2022-11-22T01:28:51.152Z,3.20
2022-11-22T01:29:52.761Z,2.11
2022-11-22T01:30:55.254Z,2.33
2022-11-22T01:31:57.025Z,3.00
2022-11-22T01:32:58.843Z,1.67
2022-11-22T01:34:00.656Z,2.22
2022-11-22T01:35:02.880Z,3.56
2022-11-22T01:36:05.525Z,3.70
2022-11-22T01:37:07.407Z,1.80
2022-11-22T01:38:09.539Z,2.67
2022-11-22T01:39:11.505Z,4.10
2022-11-22T01:40:14.195Z,2.30
2022-11-22T01:41:16.215Z,2.40
2022-11-22T01:42:17.982Z,2.44
2022-11-22T01:43:22.806Z,2.44
2022-11-22T01:44:28.321Z,3.60
2022-11-22T01:45:39.735Z,5.00
2022-11-22T01:46:42.072Z,2.20
2022-11-22T01:47:43.988Z,3.30
2022-11-22T01:48:52.662Z,1.78
2022-11-22T01:50:04.149Z,3.90
2022-11-22T01:51:22.379Z,2.70
2022-11-22T01:52:27.202Z,2.20
2022-11-22T01:53:38.259Z,3.90
2022-11-22T01:54:43.798Z,2.00
2022-11-22T01:55:47.466Z,4.70
2022-11-22T01:56:53.350Z,3.60
2022-11-22T01:57:56.509Z,2.90
2022-11-22T01:59:02.610Z,4.40
2022-11-22T02:00:09.029Z,1.80
2022-11-22T02:01:13.079Z,4.30
2022-11-22T02:02:15.443Z,4.40
2022-11-22T02:03:18.694Z,5.60
2022-11-22T02:04:22.626Z,4.18
2022-11-22T02:05:28.195Z,3.60
2022-11-22T02:06:42.974Z,4.90
2022-11-22T02:07:48.506Z,5.20
2022-11-22T02:09:02.912Z,4.70
2022-11-22T02:10:05.505Z,1.80
2022-11-22T02:11:10.270Z,5.20
2022-11-22T02:12:14.543Z,4.00
2022-11-22T02:13:19.855Z,4.90
2022-11-22T02:14:25.222Z,5.50
2022-11-22T02:15:28.065Z,5.40
2022-11-22T02:16:31.085Z,1.60
2022-11-22T02:17:33.913Z,7.00
2022-11-22T02:18:36.920Z,4.10
2022-11-22T02:19:44.878Z,3.40
2022-11-22T02:20:46.911Z,3.70
2022-11-22T02:21:52.340Z,8.89
2022-11-22T02:23:01.330Z,4.70
2022-11-22T02:24:10.938Z,2.60
2022-11-22T02:25:34.366Z,4.70
2022-11-22T02:26:36.411Z,6.10
2022-11-22T02:27:38.249Z,6.67
2022-11-22T02:28:40.268Z,6.33
2022-11-22T02:29:43.268Z,5.10
2022-11-22T02:30:45.364Z,5.20
2022-11-22T02:31:47.360Z,6.00
2022-11-22T02:32:49.315Z,4.67
2022-11-22T02:33:51.007Z,5.78
2022-11-22T02:34:52.673Z,4.22
2022-11-22T02:35:54.888Z,4.11
2022-11-22T02:36:56.905Z,5.60
2022-11-22T02:38:05.522Z,4.50
2022-11-22T02:39:11.057Z,7.00
2022-11-22T02:40:15.950Z,5.40
2022-11-22T02:41:17.961Z,4.30
2022-11-22T02:42:19.872Z,5.56
2022-11-22T02:43:25.075Z,5.78
2022-11-22T02:44:27.327Z,8.00
2022-11-22T02:45:29.163Z,5.90
2022-11-22T02:46:31.092Z,5.00
2022-11-22T02:47:32.864Z,3.78
2022-11-22T02:48:42.392Z,6.00
2022-11-22T02:49:44.365Z,4.10
2022-11-22T02:50:46.522Z,7.78
2022-11-22T02:51:48.754Z,4.90
2022-11-22T02:52:50.636Z,7.50
2022-11-22T02:53:52.643Z,6.78
2022-11-22T02:54:54.385Z,6.22
2022-11-22T02:55:56.164Z,4.67
2022-11-22T02:56:58.179Z,3.67
2022-11-22T02:58:01.055Z,5.67
2022-11-22T02:59:03.717Z,2.60
2022-11-22T03:00:07.189Z,6.00
2022-11-22T03:01:10.240Z,6.00
2022-11-22T03:02:12.276Z,5.80
2022-11-22T03:03:14.292Z,6.44
2022-11-22T03:04:16.414Z,6.40
2022-11-22T03:05:18.439Z,7.00
2022-11-22T03:06:20.383Z,5.11
2022-11-22T03:07:22.528Z,6.78
2022-11-22T03:08:24.408Z,9.10
2022-11-22T03:09:27.605Z,6.44
2022-11-22T03:10:29.717Z,7.00
2022-11-22T03:11:31.357Z,7.22
2022-11-22T03:12:33.119Z,8.00
2022-11-22T03:13:35.058Z,6.44
2022-11-22T03:14:36.708Z,4.89
2022-11-22T03:15:38.648Z,7.78
2022-11-22T03:16:44.574Z,8.00
2022-11-22T03:17:46.632Z,8.00
2022-11-22T03:18:48.532Z,8.80
2022-11-22T03:19:50.457Z,5.11
2022-11-22T03:20:52.772Z,7.00
2022-11-22T03:21:54.693Z,6.50
2022-11-22T03:22:56.739Z,6.44
2022-11-22T03:23:58.410Z,6.78
2022-11-22T03:25:00.791Z,8.78
2022-11-22T03:26:09.814Z,7.70
2022-11-22T03:27:11.849Z,7.80
2022-11-22T03:28:13.622Z,11.78
2022-11-22T03:29:16.912Z,10.56
2022-11-22T03:30:19.300Z,7.50
2022-11-22T03:31:21.165Z,7.60
2022-11-22T03:32:23.387Z,11.22
2022-11-22T03:33:25.252Z,9.60
2022-11-22T03:34:27.284Z,11.44
2022-11-22T03:35:29.281Z,8.00
2022-11-22T03:36:31.114Z,9.44
2022-11-22T03:37:32.961Z,8.11
2022-11-22T03:38:35.552Z,9.00
2022-11-22T03:39:37.242Z,11.80
2022-11-22T03:40:39.113Z,8.56
2022-11-22T03:41:43.196Z,4.78
2022-11-22T03:42:45.050Z,11.10
2022-11-22T03:43:46.860Z,3.78
2022-11-22T03:44:48.901Z,8.00
2022-11-22T03:45:50.809Z,8.44
2022-11-22T03:46:52.741Z,9.11
2022-11-22T03:47:56.854Z,9.33
2022-11-22T03:48:58.743Z,9.60
2022-11-22T03:50:00.662Z,6.67
2022-11-22T03:51:05.409Z,11.56
2022-11-22T03:52:07.689Z,2.70
2022-11-22T03:53:09.914Z,6.40
2022-11-22T03:54:12.397Z,13.10
2022-11-22T03:55:14.434Z,6.80
2022-11-22T03:56:16.370Z,10.60
2022-11-22T03:57:18.318Z,13.89
2022-11-22T03:58:20.206Z,12.56
2022-11-22T03:59:22.045Z,13.56
2022-11-22T04:00:24.087Z,14.33
2022-11-22T04:01:25.980Z,4.78
2022-11-22T04:02:27.774Z,11.44
2022-11-22T04:03:29.526Z,10.56
2022-11-22T04:04:31.590Z,14.11
2022-11-22T04:05:33.229Z,10.11
2022-11-22T04:06:34.991Z,12.00
2022-11-22T04:07:36.972Z,9.56
2022-11-22T04:08:38.754Z,12.56
2022-11-22T04:09:40.727Z,14.56
2022-11-22T04:10:42.691Z,8.11
2022-11-22T04:11:44.534Z,12.33
2022-11-22T04:12:46.205Z,13.00
2022-11-22T04:13:47.909Z,7.67
2022-11-22T04:14:49.760Z,13.00
2022-11-22T04:15:51.850Z,12.56
2022-11-22T04:16:54.076Z,15.10
2022-11-22T04:17:55.900Z,11.50
2022-11-22T04:18:57.677Z,15.56
2022-11-22T04:19:59.492Z,12.44
2022-11-22T04:21:01.568Z,11.22
2022-11-22T04:22:03.291Z,8.89
2022-11-22T04:23:08.593Z,10.67
2022-11-22T04:24:11.323Z,9.50
2022-11-22T04:25:13.314Z,17.40
2022-11-22T04:26:15.300Z,12.50
2022-11-22T04:27:17.513Z,15.33
2022-11-22T04:28:35.271Z,13.80
2022-11-22T04:29:26.905Z,5.50
2022-11-22T04:30:29.047Z,10.10
2022-11-22T04:31:31.070Z,10.80
2022-11-22T04:32:33.288Z,11.67
2022-11-22T04:33:36.208Z,12.30
2022-11-22T04:34:38.143Z,9.18
2022-11-22T04:35:41.226Z,14.22
2022-11-22T04:36:43.663Z,12.70
2022-11-22T04:37:51.329Z,11.22
2022-11-22T04:38:53.410Z,11.00
2022-11-22T04:39:55.155Z,17.60
2022-11-22T04:40:56.877Z,9.89
2022-11-22T04:41:59.286Z,9.89
2022-11-22T04:43:01.698Z,7.70
2022-11-22T04:44:04.021Z,12.80
2022-11-22T04:45:07.394Z,15.10
2022-11-22T04:46:10.394Z,14.70
2022-11-22T04:47:15.144Z,4.18
2022-11-22T04:48:17.457Z,11.70
2022-11-22T04:49:19.340Z,11.50
2022-11-22T04:50:21.756Z,5.80
2022-11-22T04:51:23.494Z,5.56
2022-11-22T04:52:25.912Z,14.89
2022-11-22T04:53:28.622Z,12.60
2022-11-22T04:54:30.457Z,12.10
2022-11-22T04:55:32.551Z,10.78
2022-11-22T04:56:35.026Z,16.20
2022-11-22T04:57:36.819Z,15.80
2022-11-22T04:58:38.997Z,13.33
2022-11-22T04:59:40.806Z,8.40
2022-11-22T05:00:43.827Z,13.22
2022-11-22T05:01:45.881Z,8.00
2022-11-22T05:02:47.849Z,8.90
2022-11-22T05:03:50.148Z,10.11
2022-11-22T05:04:51.933Z,7.30
2022-11-22T05:05:53.780Z,11.56
2022-11-22T05:06:55.609Z,15.33
2022-11-22T05:07:58.379Z,11.33
2022-11-22T05:09:00.332Z,10.55
2022-11-22T05:10:02.593Z,19.56
2022-11-22T05:11:04.481Z,11.60
2022-11-22T05:12:06.801Z,17.00
2022-11-22T05:13:08.675Z,8.60
2022-11-22T05:14:11.208Z,15.11
2022-11-22T05:15:13.421Z,4.90
2022-11-22T05:16:15.433Z,12.60
2022-11-22T05:17:17.292Z,7.00
2022-11-22T05:18:21.031Z,8.44
2022-11-22T05:19:23.327Z,6.30
2022-11-22T05:20:25.162Z,11.60
2022-11-22T05:21:27.881Z,10.56
2022-11-22T05:22:30.166Z,12.20
2022-11-22T05:23:32.140Z,7.70
2022-11-22T05:24:34.043Z,10.78
2022-11-22T05:25:36.467Z,15.00
2022-11-22T05:26:38.912Z,12.10
2022-11-22T05:27:41.001Z,12.00
2022-11-22T05:28:42.837Z,7.30
2022-11-22T05:29:44.703Z,9.56
2022-11-22T05:30:47.971Z,14.78
2022-11-22T05:31:51.932Z,10.90
2022-11-22T05:32:54.604Z,8.60
2022-11-22T05:33:56.685Z,3.00
2022-11-22T05:34:58.868Z,9.11
2022-11-22T05:36:00.852Z,10.70
2022-11-22T05:37:02.821Z,16.44
2022-11-22T05:38:04.649Z,11.89
2022-11-22T05:39:06.844Z,12.11
2022-11-22T05:40:10.681Z,11.10
2022-11-22T05:41:14.621Z,6.20
2022-11-22T05:42:16.908Z,13.00
2022-11-22T05:43:18.759Z,16.60
2022-11-22T05:44:20.875Z,11.89
2022-11-22T05:45:22.709Z,13.00
2022-11-22T05:46:27.352Z,13.22
2022-11-22T05:47:34.766Z,9.90
2022-11-22T05:48:40.381Z,11.30
2022-11-22T05:49:42.329Z,17.70
2022-11-22T05:50:44.273Z,11.56
2022-11-22T05:51:46.024Z,17.44
2022-11-22T05:52:49.040Z,25.33
2022-11-22T05:53:53.083Z,11.50
2022-11-22T05:54:54.820Z,13.80
2022-11-22T05:55:56.976Z,12.33
2022-11-22T05:56:58.837Z,10.10
2022-11-22T05:58:01.375Z,16.44
2022-11-22T05:59:03.386Z,17.50
2022-11-22T06:00:06.504Z,16.10
2022-11-22T06:01:14.387Z,15.60
2022-11-22T06:02:16.596Z,12.64
2022-11-22T06:03:18.666Z,18.30
2022-11-22T06:04:20.610Z,12.33
2022-11-22T06:05:22.283Z,14.78
2022-11-22T06:06:24.219Z,18.33
2022-11-22T06:07:26.102Z,10.89
2022-11-22T06:08:32.167Z,12.67
2022-11-22T06:09:34.635Z,11.80
2022-11-22T06:10:36.834Z,16.90
2022-11-22T06:11:38.547Z,14.40
2022-11-22T06:12:40.783Z,12.11
2022-11-22T06:13:45.457Z,13.30
2022-11-22T06:14:47.307Z,12.90
2022-11-22T06:15:49.688Z,14.00
2022-11-22T06:16:51.816Z,15.90
2022-11-22T06:17:53.566Z,13.22
2022-11-22T06:18:55.595Z,12.56
2022-11-22T06:20:02.660Z,13.40
2022-11-22T06:21:04.380Z,16.50
2022-11-22T06:22:06.331Z,15.90
2022-11-22T06:23:08.060Z,14.56
2022-11-22T10:35:15.639Z,25.70
2022-11-22T10:36:21.953Z,16.20
2022-11-22T10:37:30.659Z,24.00
2022-11-22T10:39:01.526Z,20.20
2022-11-22T10:40:12.423Z,17.00
2022-11-22T10:41:23.371Z,17.50
2022-11-22T10:42:55.059Z,19.50
2022-11-22T10:44:20.364Z,17.20
2022-11-22T10:47:20.079Z,19.60
2022-11-22T10:50:09.484Z,18.80
2022-11-22T10:51:24.256Z,22.70
2022-11-22T10:52:42.898Z,20.40
2022-11-22T10:54:00.351Z,13.80
2022-11-22T10:55:03.031Z,18.80
2022-11-22T10:56:31.720Z,23.90
2022-11-22T10:57:37.333Z,35.30
2022-11-22T10:59:00.842Z,30.90
2022-11-22T11:00:15.135Z,30.10
2022-11-22T11:02:02.640Z,25.80
2022-11-22T11:03:25.175Z,24.60
2022-11-22T11:04:43.670Z,31.10
2022-11-22T11:06:26.606Z,27.70
2022-11-22T11:07:27.043Z,21.60
2022-11-22T11:08:54.464Z,26.40
2022-11-22T11:10:53.192Z,23.70
2022-11-22T11:11:55.151Z,16.60
2022-11-22T11:13:04.968Z,17.89
2022-11-22T11:14:19.662Z,20.30
2022-11-22T11:15:35.525Z,18.10
2022-11-22T11:16:51.802Z,16.00
2022-11-22T11:17:57.755Z,17.10
2022-11-22T11:19:20.729Z,21.60
2022-11-22T11:20:32.341Z,20.00
2022-11-22T11:21:39.238Z,20.00
2022-11-22T11:23:13.200Z,15.30
2022-11-22T11:23:50.570Z,17.10
2022-11-22T11:24:53.305Z,18.00
2022-11-22T11:26:01.767Z,17.90
2022-11-22T11:27:06.161Z,11.90
2022-11-22T11:28:20.899Z,18.50
2022-11-22T11:29:45.186Z,22.00
2022-11-22T11:30:56.783Z,18.80
2022-11-22T11:32:17.927Z,16.40
2022-11-22T11:33:26.964Z,13.00
2022-11-22T11:34:30.212Z,16.10
2022-11-22T11:35:34.213Z,10.82
2022-11-22T11:36:38.696Z,19.30
2022-11-22T11:37:45.865Z,19.30
2022-11-22T11:38:57.091Z,20.90
2022-11-22T11:39:59.256Z,14.10
2022-11-22T11:41:20.489Z,18.80
2022-11-22T11:42:29.204Z,16.90
2022-11-22T11:43:32.441Z,23.10
2022-11-22T11:44:36.871Z,19.82
2022-11-22T11:45:40.478Z,19.40
2022-11-22T11:46:47.194Z,19.90
2022-11-22T11:47:50.170Z,16.50
2022-11-22T11:48:55.332Z,21.20
2022-11-22T11:49:57.357Z,15.80
2022-11-22T11:51:13.150Z,18.80
2022-11-22T11:52:25.254Z,21.00
2022-11-22T11:53:27.306Z,12.40
2022-11-22T11:54:42.557Z,21.44
2022-11-22T11:55:44.825Z,20.90
2022-11-22T11:56:52.420Z,18.20
2022-11-22T11:57:54.538Z,21.20
2022-11-22T11:58:58.852Z,17.33
2022-11-22T12:00:04.238Z,21.00
2022-11-22T12:01:11.813Z,17.00
2022-11-22T12:02:20.582Z,21.80
2022-11-22T12:03:26.749Z,21.80
2022-11-22T12:04:32.420Z,25.30
2022-11-22T12:05:34.753Z,30.50
2022-11-22T12:06:37.735Z,29.80
2022-11-22T12:07:42.645Z,17.30
2022-11-22T12:08:44.663Z,16.90
2022-11-22T12:09:49.653Z,18.44
2022-11-22T12:11:01.142Z,22.20
2022-11-22T12:12:12.560Z,22.40
2022-11-22T12:13:51.512Z,17.40
2022-11-22T12:15:09.807Z,18.10
2022-11-22T12:15:59.796Z,18.50
2022-11-22T12:17:05.864Z,15.50
2022-11-22T12:18:26.736Z,14.70
2022-11-22T12:19:52.916Z,12.00
2022-11-22T12:20:58.646Z,16.00
2022-11-22T12:22:04.530Z,19.90
2022-11-22T12:23:29.836Z,17.00
2022-11-22T12:24:52.667Z,19.30
2022-11-22T12:25:47.764Z,16.80
2022-11-22T12:26:51.085Z,11.60
2022-11-22T12:27:53.500Z,16.60
2022-11-22T12:28:58.615Z,15.90
2022-11-22T12:30:00.583Z,22.40
2022-11-22T12:31:10.646Z,19.67
2022-11-22T12:32:16.695Z,19.50
2022-11-22T12:33:23.102Z,23.00
2022-11-22T12:35:45.856Z,20.50
2022-11-22T12:37:00.413Z,17.90
2022-11-22T12:38:15.073Z,21.00
2022-11-22T12:39:23.627Z,15.30
2022-11-22T12:40:44.621Z,19.80
2022-11-22T12:41:50.108Z,20.60
2022-11-22T12:43:16.744Z,12.90
2022-11-22T12:44:21.588Z,7.10
2022-11-22T12:45:35.998Z,21.10
2022-11-22T12:46:43.617Z,21.50
2022-11-22T12:47:47.671Z,18.70
2022-11-22T12:49:03.220Z,22.10
2022-11-22T12:50:28.999Z,25.10
2022-11-22T12:51:37.271Z,20.40
2022-11-22T12:52:49.518Z,26.10
2022-11-22T12:53:54.424Z,20.70
2022-11-22T12:55:06.524Z,15.70
2022-11-22T12:56:33.732Z,22.00
2022-11-22T12:57:44.026Z,23.50
2022-11-22T12:59:22.747Z,23.30
2022-11-22T13:00:28.253Z,17.00
2022-11-22T13:01:49.348Z,21.50
2022-11-22T13:03:10.421Z,22.20
2022-11-22T13:04:25.308Z,20.90
2022-11-22T13:05:49.733Z,26.90
2022-11-22T13:06:58.324Z,24.30
2022-11-22T13:08:06.795Z,34.20
2022-11-22T13:09:15.306Z,23.50
2022-11-22T13:10:33.020Z,24.10
2022-11-22T13:11:38.991Z,25.70
2022-11-22T13:12:42.540Z,22.60
2022-11-22T13:13:47.845Z,17.70
2022-11-22T13:14:53.661Z,22.50
2022-11-22T13:16:00.756Z,20.30
2022-11-22T13:17:10.350Z,20.80
2022-11-22T13:18:15.939Z,19.90
2022-11-22T13:19:22.360Z,22.20
2022-11-22T13:20:28.828Z,25.90
2022-11-22T13:21:52.167Z,18.70
2022-11-22T13:23:19.917Z,23.80
2022-11-22T13:24:34.468Z,23.60
2022-11-22T13:25:46.578Z,27.80
2022-11-22T13:27:08.996Z,28.20
2022-11-22T13:28:20.722Z,34.80
2022-11-22T13:29:28.888Z,30.80
2022-11-22T13:30:34.942Z,32.20
2022-11-22T13:31:40.982Z,14.00
2022-11-22T13:32:43.821Z,31.60
2022-11-22T13:33:58.038Z,23.10
2022-11-22T13:35:12.603Z,25.80
2022-11-22T13:36:31.385Z,5.10
2022-11-22T13:37:46.841Z,18.90
2022-11-22T13:38:51.756Z,23.80
2022-11-22T13:39:54.851Z,23.10
2022-11-22T13:41:00.955Z,24.30
2022-11-22T13:42:06.280Z,22.90
2022-11-22T13:43:21.838Z,18.60
2022-11-22T13:44:26.110Z,14.20
2022-11-22T13:45:33.745Z,29.90
2022-11-22T13:47:01.839Z,26.10
2022-11-22T13:48:04.010Z,28.30
2022-11-22T13:49:15.110Z,11.80
2022-11-22T13:50:41.845Z,10.40
2022-11-22T13:51:51.367Z,16.30
2022-11-22T13:52:54.730Z,20.00
2022-11-22T13:54:17.519Z,21.80
2022-11-22T13:55:35.879Z,23.30
2022-11-22T13:56:39.846Z,25.20
2022-11-22T13:57:42.370Z,19.60
2022-11-22T13:58:51.275Z,19.20
2022-11-22T14:00:16.473Z,25.40
2022-11-22T14:01:37.180Z,23.50
2022-11-22T14:02:54.595Z,19.30
2022-11-22T14:04:18.992Z,23.50
2022-11-22T14:05:41.623Z,17.90
2022-11-22T14:07:01.352Z,13.70
2022-11-22T14:08:05.242Z,19.70
2022-11-22T14:09:23.306Z,21.40
2022-11-22T14:10:35.734Z,19.40
2022-11-22T14:11:47.354Z,22.70
2022-11-22T14:12:52.930Z,19.90
2022-11-22T14:14:04.406Z,21.00
2022-11-22T14:15:22.523Z,24.40
2022-11-22T14:16:31.689Z,14.30
2022-11-22T14:17:59.317Z,13.60
2022-11-22T14:19:20.095Z,20.40
2022-11-22T14:21:00.876Z,14.60
2022-11-22T14:22:13.154Z,16.90
2022-11-22T14:23:24.847Z,16.80
2022-11-22T14:24:36.369Z,16.80
2022-11-22T14:25:44.909Z,18.90
2022-11-22T14:26:51.827Z,20.50
2022-11-22T18:18:06.492Z,36.00
2022-11-22T18:19:08.601Z,24.90
2022-11-22T18:20:11.317Z,31.90
2022-11-22T18:21:17.123Z,28.00
2022-11-22T18:22:17.734Z,29.40
2022-11-22T18:23:21.281Z,23.30
2022-11-22T18:24:23.048Z,30.70
2022-11-22T18:25:24.974Z,31.89
2022-11-22T18:26:43.455Z,28.78
2022-11-22T18:27:39.104Z,25.90
2022-11-22T18:28:38.571Z,22.70
2022-11-22T18:29:42.796Z,24.33
2022-11-22T18:30:46.628Z,37.60
2022-11-22T18:32:52.541Z,36.90
2022-11-22T18:33:54.625Z,40.11
2022-11-22T18:34:56.657Z,49.56
2022-11-22T18:36:00.242Z,47.89
2022-11-22T18:37:04.150Z,40.50
2022-11-22T18:38:06.225Z,39.70
2022-11-22T18:39:09.419Z,39.11
2022-11-22T18:40:12.872Z,41.80
2022-11-22T18:41:15.047Z,24.10
2022-11-22T18:42:16.943Z,31.60
2022-11-22T18:43:19.260Z,33.44
2022-11-22T18:44:21.347Z,35.00
2022-11-22T18:45:23.407Z,35.89
2022-11-22T18:47:37.075Z,36.80
2022-11-22T18:48:39.200Z,34.80
2022-11-22T18:49:41.703Z,29.89
2022-11-22T18:50:44.907Z,35.00
2022-11-22T18:51:47.483Z,26.80
2022-11-22T18:52:50.920Z,31.80
2022-11-22T18:53:53.617Z,29.40
2022-11-22T18:56:22.290Z,27.80
2022-11-22T18:57:24.808Z,24.70
2022-11-22T18:58:32.118Z,29.20
2022-11-22T18:59:33.427Z,17.80
2022-11-22T19:00:37.048Z,21.50
2022-11-22T19:01:40.983Z,25.20
2022-11-22T19:02:44.047Z,28.30
2022-11-22T19:03:46.460Z,23.30
2022-11-22T19:04:48.681Z,27.20
2022-11-22T19:05:51.170Z,26.30
2022-11-22T19:06:54.537Z,27.70
2022-11-22T19:07:56.852Z,27.00
2022-11-22T19:09:01.113Z,24.60
2022-11-22T19:10:05.294Z,26.20
2022-11-22T19:11:08.929Z,25.40
2022-11-22T19:12:11.198Z,20.50
2022-11-22T19:13:14.345Z,24.60
2022-11-22T19:14:17.299Z,22.10
2022-11-22T19:15:19.289Z,25.91
2022-11-22T19:16:22.611Z,25.22
2022-11-22T19:17:25.314Z,26.50
2022-11-22T19:18:31.462Z,22.00
2022-11-22T19:19:31.786Z,22.90
2022-11-22T19:20:54.533Z,19.90
2022-11-22T19:21:41.687Z,26.00
2022-11-22T19:22:44.167Z,28.90
2022-11-22T19:23:48.242Z,25.30
2022-11-22T19:24:50.189Z,25.40
2022-11-22T19:25:52.294Z,21.89
2022-11-22T19:26:54.746Z,26.40
2022-11-22T19:27:56.571Z,26.10
2022-11-22T19:29:00.477Z,27.11
2022-11-22T19:30:03.445Z,34.50
2022-11-22T19:31:09.166Z,37.09
2022-11-22T19:32:11.140Z,37.60
2022-11-22T19:33:13.138Z,30.33
2022-11-22T19:34:15.257Z,32.00
2022-11-22T19:35:17.280Z,21.33
2022-11-22T19:36:21.628Z,25.50
2022-11-22T19:37:23.579Z,24.70
2022-11-22T19:38:26.098Z,27.67
2022-11-22T19:39:28.067Z,17.60
2022-11-22T19:40:30.790Z,22.80
2022-11-22T19:41:33.319Z,22.50
2022-11-22T19:42:35.139Z,28.20
2022-11-22T19:43:37.670Z,25.44
2022-11-22T19:44:39.953Z,25.80
2022-11-22T19:45:41.765Z,24.30
2022-11-22T19:46:44.780Z,25.44
2022-11-22T19:47:46.751Z,24.50
2022-11-22T19:48:54.227Z,24.44
2022-11-22T19:49:56.998Z,26.10
2022-11-22T19:51:12.887Z,24.55
2022-11-22T19:52:14.606Z,25.00
2022-11-22T19:53:17.303Z,23.89
2022-11-22T19:54:19.585Z,19.50
2022-11-22T19:55:21.780Z,23.90
2022-11-22T19:56:24.128Z,22.00
2022-11-22T19:57:25.941Z,23.50
2022-11-22T19:58:28.677Z,24.00
2022-11-22T19:59:32.840Z,25.90
2022-11-22T20:00:38.194Z,24.80
2022-11-22T20:01:41.793Z,26.50
2022-11-22T20:02:44.036Z,24.70
2022-11-22T20:03:52.417Z,26.70
2022-11-22T20:04:54.780Z,25.60
2022-11-22T20:05:59.015Z,19.40
2022-11-22T20:07:01.019Z,26.20
2022-11-22T20:08:03.461Z,23.67
2022-11-22T20:09:08.648Z,24.09
2022-11-22T20:10:12.076Z,19.60
2022-11-22T20:11:17.202Z,20.80
2022-11-22T20:12:19.052Z,20.00
2022-11-22T20:13:20.692Z,20.56
2022-11-22T20:14:23.077Z,18.89
2022-11-22T20:15:26.033Z,21.20
2022-11-22T20:16:29.861Z,23.00
2022-11-22T20:17:32.713Z,19.20
2022-11-22T20:18:35.136Z,21.09
2022-11-22T20:19:37.939Z,21.40
2022-11-22T20:20:40.516Z,19.55
2022-11-22T20:21:42.730Z,16.70
2022-11-22T20:22:44.526Z,9.80
2022-11-22T20:23:46.979Z,19.33
2022-11-22T20:24:48.826Z,18.80
2022-11-22T20:25:50.621Z,20.67
2022-11-22T20:26:53.915Z,17.60
2022-11-22T20:27:56.728Z,22.09
2022-11-22T20:29:07.727Z,22.60
2022-11-22T20:30:10.286Z,22.10
2022-11-22T20:31:18.054Z,18.30
2022-11-22T20:32:21.286Z,21.00
2022-11-22T20:33:25.951Z,19.10
2022-11-22T20:34:27.920Z,24.90
2022-11-22T20:35:31.329Z,18.30
2022-11-22T20:36:36.584Z,19.50
2022-11-22T20:37:40.247Z,22.80
2022-11-22T20:38:44.234Z,22.22
2022-11-22T20:39:48.217Z,21.30
2022-11-22T20:40:54.367Z,25.90
2022-11-22T20:42:32.065Z,24.30
2022-11-22T20:43:03.675Z,19.60
2022-11-22T20:44:06.497Z,15.80
2022-11-22T20:45:08.710Z,22.55
2022-11-22T20:46:13.489Z,18.60
2022-11-22T20:47:17.425Z,22.20
2022-11-22T20:48:19.666Z,22.90
2022-11-22T20:49:21.474Z,24.40
2022-11-22T20:50:23.283Z,20.56
2022-11-22T20:51:27.731Z,23.11
2022-11-22T20:52:29.452Z,20.90
2022-11-22T20:53:32.333Z,20.56
2022-11-22T20:54:34.327Z,22.60
2022-11-22T20:55:38.094Z,19.70
2022-11-22T20:56:40.273Z,21.90
2022-11-22T20:57:41.878Z,25.67
2022-11-22T20:58:44.519Z,22.11
2022-11-22T20:59:46.696Z,26.50
2022-11-22T21:00:48.603Z,21.60
2022-11-22T21:01:50.762Z,20.00
2022-11-22T21:02:52.660Z,19.30
2022-11-22T21:03:55.115Z,22.56
2022-11-22T21:04:57.359Z,21.00
2022-11-22T21:06:01.208Z,21.50
2022-11-22T21:07:04.012Z,19.60
2022-11-22T21:08:06.853Z,23.64
2022-11-22T21:09:08.867Z,17.00
2022-11-22T21:10:11.986Z,18.90
2022-11-22T21:11:23.714Z,15.30
2022-11-22T21:12:26.020Z,20.70
2022-11-22T21:13:27.790Z,13.70
2022-11-22T21:14:31.427Z,18.33
2022-11-22T21:15:34.114Z,18.00
2022-11-22T21:16:36.118Z,18.50
2022-11-22T21:17:55.812Z,17.00
2022-11-22T21:18:41.554Z,19.90
2022-11-22T21:19:43.258Z,17.00
2022-11-22T21:20:45.009Z,17.67
2022-11-22T21:21:47.025Z,16.44
2022-11-22T21:22:52.787Z,16.44
2022-11-22T21:23:57.009Z,19.10
2022-11-22T21:24:59.860Z,20.80
2022-11-22T21:26:04.515Z,19.00
2022-11-22T21:27:06.971Z,12.20
2022-11-22T21:28:09.084Z,15.10
2022-11-22T21:29:15.890Z,15.00
2022-11-22T21:30:16.727Z,20.50
2022-11-22T21:31:20.064Z,20.40
2022-11-22T21:32:21.965Z,19.30
2022-11-22T21:33:25.501Z,18.67
2022-11-22T21:34:27.325Z,19.30
2022-11-22T21:35:29.098Z,18.56
2022-11-22T21:36:31.530Z,20.11
2022-11-22T21:37:34.031Z,21.70
2022-11-22T21:38:35.941Z,19.80
2022-11-22T21:39:38.238Z,18.89
2022-11-22T21:40:42.031Z,21.40
2022-11-22T21:41:43.860Z,17.80
2022-11-22T21:42:46.494Z,20.89
2022-11-22T21:43:50.648Z,22.10
2022-11-22T21:44:52.197Z,20.50
2022-11-22T21:45:54.117Z,15.22
2022-11-22T21:46:56.095Z,19.10
2022-11-22T21:47:57.715Z,21.56
2022-11-22T21:48:59.363Z,21.89
2022-11-22T21:50:01.587Z,23.89
2022-11-22T21:51:04.469Z,18.90
2022-11-22T21:52:07.434Z,19.09
2022-11-22T21:53:09.430Z,20.73
2022-11-22T21:54:11.618Z,21.30
2022-11-22T21:55:13.804Z,20.67
2022-11-22T21:56:16.029Z,20.40
2022-11-22T21:57:18.334Z,17.30
2022-11-22T21:58:22.206Z,21.60
2022-11-22T21:59:25.130Z,18.80
2022-11-22T22:00:27.361Z,16.10
2022-11-22T22:01:30.699Z,23.10
2022-11-22T22:02:33.137Z,23.70
2022-11-22T22:03:35.497Z,19.00
2022-11-22T22:04:38.133Z,20.80
2022-11-22T22:05:40.149Z,19.70
2022-11-22T22:06:45.922Z,23.70
2022-11-22T22:07:54.714Z,22.60
2022-11-22T22:08:51.298Z,19.80
2022-11-22T22:09:54.849Z,17.56
2022-11-22T22:10:57.607Z,21.70
2022-11-22T22:11:59.302Z,17.20
2022-11-22T22:13:02.825Z,22.22
2022-11-22T22:14:04.680Z,19.60
2022-11-22T22:15:09.437Z,16.44
2022-11-22T22:16:13.340Z,25.20
2022-11-22T22:17:15.456Z,24.80
2022-11-22T22:18:18.187Z,20.00